sensor_id;sensor_type;location;lat;lon;timestamp;temperature;humidity
3023;DHT22;1521;53.584;9.938;2023-04-01T00:01:31;10.20;99.90
3023;DHT22;1521;53.584;9.938;2023-04-01T00:03:56;10.20;99.90
3023;DHT22;1521;53.584;9.938;2023-04-01T00:06:22;10.20;99.90
3023;DHT22;1521;53.584;9.938;2023-04-01T00:08:48;10.10;99.90
3023;DHT22;1521;53.584;9.938;2023-04-01T00:11:14;10.20;99.90
3023;DHT22;1521;53.584;9.938;2023-04-01T00:13:40;10.20;99.90
3023;DHT22;1521;53.584;9.938;2023-04-01T00:16:07;10.10;99.90
3023;DHT22;1521;53.584;9.938;2023-04-01T00:18:33;10.10;99.90
3023;DHT22;1521;53.584;9.938;2023-04-01T00:20:58;10.10;99.90
3023;DHT22;1521;53.584;9.938;2023-04-01T00:23:25;10.10;99.90
3023;DHT22;1521;53.584;9.938;2023-04-01T00:25:50;10.10;99.90
3023;DHT22;1521;53.584;9.938;2023-04-01T00:28:18;10.10;99.90
3023;DHT22;1521;53.584;9.938;2023-04-01T00:30:44;10.10;99.90
3023;DHT22;1521;53.584;9.938;2023-04-01T00:33:12;10.10;99.90
3023;DHT22;1521;53.584;9.938;2023-04-01T00:35:39;10.10;99.90
3023;DHT22;1521;53.584;9.938;2023-04-01T00:38:05;10.10;99.90
3023;DHT22;1521;53.584;9.938;2023-04-01T00:42:59;10.10;99.90
3023;DHT22;1521;53.584;9.938;2023-04-01T00:45:36;10.10;99.90
3023;DHT22;1521;53.584;9.938;2023-04-01T00:48:07;10.10;99.90
3023;DHT22;1521;53.584;9.938;2023-04-01T00:50:35;10.10;99.90
3023;DHT22;1521;53.584;9.938;2023-04-01T00:53:01;10.10;99.90
3023;DHT22;1521;53.584;9.938;2023-04-01T00:55:31;10.00;99.90
3023;DHT22;1521;53.584;9.938;2023-04-01T00:57:59;10.00;99.90
3023;DHT22;1521;53.584;9.938;2023-04-01T01:00:26;10.00;99.90
3023;DHT22;1521;53.584;9.938;2023-04-01T01:02:53;10.00;99.90
3023;DHT22;1521;53.584;9.938;2023-04-01T01:05:23;10.00;99.90
3023;DHT22;1521;53.584;9.938;2023-04-01T01:08:03;10.00;99.90
3023;DHT22;1521;53.584;9.938;2023-04-01T01:10:33;10.00;99.90
3023;DHT22;1521;53.584;9.938;2023-04-01T01:18:05;10.00;99.90
3023;DHT22;1521;53.584;9.938;2023-04-01T01:29:32;10.00;99.90
3023;DHT22;1521;53.584;9.938;2023-04-01T01:34:52;10.00;99.90
3023;DHT22;1521;53.584;9.938;2023-04-01T01:37:21;10.00;99.90
3023;DHT22;1521;53.584;9.938;2023-04-01T01:39:53;10.00;99.90
3023;DHT22;1521;53.584;9.938;2023-04-01T01:42:20;9.90;99.90
3023;DHT22;1521;53.584;9.938;2023-04-01T01:44:49;9.90;99.90
3023;DHT22;1521;53.584;9.938;2023-04-01T01:47:16;9.90;99.90
3023;DHT22;1521;53.584;9.938;2023-04-01T01:49:43;10.00;99.90
3023;DHT22;1521;53.584;9.938;2023-04-01T01:52:12;10.00;99.90
3023;DHT22;1521;53.584;9.938;2023-04-01T01:54:48;10.00;99.90
3023;DHT22;1521;53.584;9.938;2023-04-01T01:57:15;9.90;99.90
3023;DHT22;1521;53.584;9.938;2023-04-01T01:59:42;10.00;99.90
3023;DHT22;1521;53.584;9.938;2023-04-01T02:02:09;9.90;99.90
3023;DHT22;1521;53.584;9.938;2023-04-01T02:04:38;9.90;99.90
3023;DHT22;1521;53.584;9.938;2023-04-01T02:07:08;10.00;99.90
3023;DHT22;1521;53.584;9.938;2023-04-01T02:09:36;9.90;99.90
3023;DHT22;1521;53.584;9.938;2023-04-01T02:12:11;10.00;99.90
3023;DHT22;1521;53.584;9.938;2023-04-01T02:17:12;9.90;99.90
3023;DHT22;1521;53.584;9.938;2023-04-01T02:19:47;9.90;99.90
3023;DHT22;1521;53.584;9.938;2023-04-01T02:22:18;9.90;99.90
3023;DHT22;1521;53.584;9.938;2023-04-01T02:24:45;9.90;99.90
3023;DHT22;1521;53.584;9.938;2023-04-01T02:27:12;9.90;99.90
3023;DHT22;1521;53.584;9.938;2023-04-01T02:29:38;9.90;99.90
3023;DHT22;1521;53.584;9.938;2023-04-01T02:32:05;9.90;99.90
3023;DHT22;1521;53.584;9.938;2023-04-01T02:34:31;9.90;99.90
3023;DHT22;1521;53.584;9.938;2023-04-01T02:36:57;9.90;99.90
3023;DHT22;1521;53.584;9.938;2023-04-01T02:39:23;9.90;99.90
3023;DHT22;1521;53.584;9.938;2023-04-01T02:41:50;9.80;99.90
3023;DHT22;1521;53.584;9.938;2023-04-01T02:44:16;9.80;99.90
3023;DHT22;1521;53.584;9.938;2023-04-01T02:46:42;9.80;99.90
3023;DHT22;1521;53.584;9.938;2023-04-01T02:49:07;9.90;99.90
3023;DHT22;1521;53.584;9.938;2023-04-01T02:51:34;9.90;99.90
3023;DHT22;1521;53.584;9.938;2023-04-01T02:53:59;9.90;99.90
3023;DHT22;1521;53.584;9.938;2023-04-01T02:56:25;9.90;99.90
3023;DHT22;1521;53.584;9.938;2023-04-01T02:58:52;9.90;99.90
3023;DHT22;1521;53.584;9.938;2023-04-01T03:01:17;9.90;99.90
3023;DHT22;1521;53.584;9.938;2023-04-01T03:03:43;9.90;99.90
3023;DHT22;1521;53.584;9.938;2023-04-01T03:06:11;9.80;99.90
3023;DHT22;1521;53.584;9.938;2023-04-01T03:08:38;9.90;99.90
3023;DHT22;1521;53.584;9.938;2023-04-01T03:11:04;9.80;99.90
3023;DHT22;1521;53.584;9.938;2023-04-01T03:13:29;9.80;99.90
3023;DHT22;1521;53.584;9.938;2023-04-01T03:15:55;9.80;99.90
3023;DHT22;1521;53.584;9.938;2023-04-01T03:18:21;9.80;99.90
3023;DHT22;1521;53.584;9.938;2023-04-01T03:20:47;9.80;99.90
3023;DHT22;1521;53.584;9.938;2023-04-01T03:23:12;9.80;99.90
3023;DHT22;1521;53.584;9.938;2023-04-01T03:25:38;9.90;99.90
3023;DHT22;1521;53.584;9.938;2023-04-01T03:28:04;9.90;99.90
3023;DHT22;1521;53.584;9.938;2023-04-01T03:30:30;9.90;99.90
3023;DHT22;1521;53.584;9.938;2023-04-01T03:32:57;9.80;99.90
3023;DHT22;1521;53.584;9.938;2023-04-01T03:35:23;9.80;99.90
3023;DHT22;1521;53.584;9.938;2023-04-01T03:37:50;9.80;99.90
3023;DHT22;1521;53.584;9.938;2023-04-01T03:40:16;9.80;99.90
3023;DHT22;1521;53.584;9.938;2023-04-01T03:42:42;9.80;99.90
3023;DHT22;1521;53.584;9.938;2023-04-01T03:45:07;9.70;99.90
3023;DHT22;1521;53.584;9.938;2023-04-01T03:47:33;9.70;99.90
3023;DHT22;1521;53.584;9.938;2023-04-01T03:49:59;9.80;99.90
3023;DHT22;1521;53.584;9.938;2023-04-01T03:52:24;9.80;99.90
3023;DHT22;1521;53.584;9.938;2023-04-01T03:54:50;9.80;99.90
3023;DHT22;1521;53.584;9.938;2023-04-01T03:57:16;9.80;99.90
3023;DHT22;1521;53.584;9.938;2023-04-01T03:59:41;9.80;99.90
3023;DHT22;1521;53.584;9.938;2023-04-01T04:02:07;9.70;99.90
3023;DHT22;1521;53.584;9.938;2023-04-01T04:04:33;9.70;99.90
3023;DHT22;1521;53.584;9.938;2023-04-01T04:06:58;9.70;99.90
3023;DHT22;1521;53.584;9.938;2023-04-01T04:09:24;9.80;99.90
3023;DHT22;1521;53.584;9.938;2023-04-01T04:11:50;9.80;99.90
3023;DHT22;1521;53.584;9.938;2023-04-01T04:14:16;9.80;99.90
3023;DHT22;1521;53.584;9.938;2023-04-01T04:16:41;9.80;99.90
3023;DHT22;1521;53.584;9.938;2023-04-01T04:19:07;9.80;99.90
3023;DHT22;1521;53.584;9.938;2023-04-01T04:21:33;9.80;99.90
3023;DHT22;1521;53.584;9.938;2023-04-01T04:24:02;9.80;99.90
3023;DHT22;1521;53.584;9.938;2023-04-01T04:26:28;9.80;99.90
3023;DHT22;1521;53.584;9.938;2023-04-01T04:28:54;9.80;99.90
3023;DHT22;1521;53.584;9.938;2023-04-01T04:31:21;9.80;99.90
3023;DHT22;1521;53.584;9.938;2023-04-01T04:33:48;9.80;99.90
3023;DHT22;1521;53.584;9.938;2023-04-01T04:36:14;9.80;99.90
3023;DHT22;1521;53.584;9.938;2023-04-01T04:38:39;9.80;99.90
3023;DHT22;1521;53.584;9.938;2023-04-01T04:41:12;9.80;99.90
3023;DHT22;1521;53.584;9.938;2023-04-01T04:43:39;9.80;99.90
3023;DHT22;1521;53.584;9.938;2023-04-01T04:46:10;9.80;99.90
3023;DHT22;1521;53.584;9.938;2023-04-01T04:48:36;9.80;99.90
3023;DHT22;1521;53.584;9.938;2023-04-01T04:51:02;9.70;99.90
3023;DHT22;1521;53.584;9.938;2023-04-01T04:53:27;9.80;99.90
3023;DHT22;1521;53.584;9.938;2023-04-01T04:55:53;9.80;99.90
3023;DHT22;1521;53.584;9.938;2023-04-01T04:58:19;9.80;99.90
3023;DHT22;1521;53.584;9.938;2023-04-01T05:00:45;9.80;99.90
3023;DHT22;1521;53.584;9.938;2023-04-01T05:03:12;9.80;99.90
3023;DHT22;1521;53.584;9.938;2023-04-01T05:05:38;9.80;99.90
3023;DHT22;1521;53.584;9.938;2023-04-01T05:08:04;9.80;99.90
3023;DHT22;1521;53.584;9.938;2023-04-01T05:10:29;9.80;99.90
3023;DHT22;1521;53.584;9.938;2023-04-01T05:12:56;9.70;99.90
3023;DHT22;1521;53.584;9.938;2023-04-01T05:15:21;9.70;99.90
3023;DHT22;1521;53.584;9.938;2023-04-01T05:17:47;9.70;99.90
3023;DHT22;1521;53.584;9.938;2023-04-01T05:20:13;9.70;99.90
3023;DHT22;1521;53.584;9.938;2023-04-01T05:22:39;9.70;99.90
3023;DHT22;1521;53.584;9.938;2023-04-01T05:25:05;9.70;99.90
3023;DHT22;1521;53.584;9.938;2023-04-01T05:27:31;9.80;99.90
3023;DHT22;1521;53.584;9.938;2023-04-01T05:29:57;9.80;99.90
3023;DHT22;1521;53.584;9.938;2023-04-01T05:32:22;9.80;99.90
3023;DHT22;1521;53.584;9.938;2023-04-01T05:34:51;9.80;99.90
3023;DHT22;1521;53.584;9.938;2023-04-01T05:37:16;9.60;99.90
3023;DHT22;1521;53.584;9.938;2023-04-01T05:39:42;9.30;99.90
3023;DHT22;1521;53.584;9.938;2023-04-01T05:42:08;9.20;99.90
3023;DHT22;1521;53.584;9.938;2023-04-01T05:44:34;9.10;99.90
3023;DHT22;1521;53.584;9.938;2023-04-01T05:47:00;9.00;99.90
3023;DHT22;1521;53.584;9.938;2023-04-01T05:49:26;8.90;99.90
3023;DHT22;1521;53.584;9.938;2023-04-01T05:51:51;8.80;99.90
3023;DHT22;1521;53.584;9.938;2023-04-01T05:54:18;8.70;99.90
3023;DHT22;1521;53.584;9.938;2023-04-01T05:56:44;8.70;99.90
3023;DHT22;1521;53.584;9.938;2023-04-01T05:59:11;8.50;99.90
3023;DHT22;1521;53.584;9.938;2023-04-01T06:01:36;8.50;99.90
3023;DHT22;1521;53.584;9.938;2023-04-01T06:04:02;8.50;99.90
3023;DHT22;1521;53.584;9.938;2023-04-01T06:06:30;8.50;99.90
3023;DHT22;1521;53.584;9.938;2023-04-01T06:09:04;8.40;99.90
3023;DHT22;1521;53.584;9.938;2023-04-01T06:14:46;8.10;99.90
3023;DHT22;1521;53.584;9.938;2023-04-01T06:17:20;8.10;99.90
3023;DHT22;1521;53.584;9.938;2023-04-01T06:20:15;8.10;99.90
3023;DHT22;1521;53.584;9.938;2023-04-01T06:31:11;7.80;99.90
3023;DHT22;1521;53.584;9.938;2023-04-01T06:37:03;7.70;99.90
3023;DHT22;1521;53.584;9.938;2023-04-01T06:45:44;7.60;99.90
3023;DHT22;1521;53.584;9.938;2023-04-01T06:54:20;7.60;99.90
3023;DHT22;1521;53.584;9.938;2023-04-01T06:56:51;7.60;99.90
3023;DHT22;1521;53.584;9.938;2023-04-01T06:59:24;7.50;99.90
3023;DHT22;1521;53.584;9.938;2023-04-01T07:02:01;7.50;99.90
3023;DHT22;1521;53.584;9.938;2023-04-01T07:04:33;7.60;99.90
3023;DHT22;1521;53.584;9.938;2023-04-01T07:07:10;7.50;99.90
3023;DHT22;1521;53.584;9.938;2023-04-01T07:09:41;7.40;99.90
3023;DHT22;1521;53.584;9.938;2023-04-01T07:14:56;7.50;99.90
3023;DHT22;1521;53.584;9.938;2023-04-01T07:17:27;7.40;99.90
3023;DHT22;1521;53.584;9.938;2023-04-01T07:22:35;7.40;99.90
3023;DHT22;1521;53.584;9.938;2023-04-01T07:25:15;7.40;99.90
3023;DHT22;1521;53.584;9.938;2023-04-01T07:27:45;7.40;99.90
3023;DHT22;1521;53.584;9.938;2023-04-01T07:30:19;7.40;99.90
3023;DHT22;1521;53.584;9.938;2023-04-01T07:47:03;7.10;99.90
3023;DHT22;1521;53.584;9.938;2023-04-01T07:50:02;7.10;99.90
3023;DHT22;1521;53.584;9.938;2023-04-01T08:00:55;6.90;99.90
3023;DHT22;1521;53.584;9.938;2023-04-01T08:06:32;6.80;99.90
3023;DHT22;1521;53.584;9.938;2023-04-01T08:09:30;6.90;99.90
3023;DHT22;1521;53.584;9.938;2023-04-01T08:21:24;7.00;87.50
3023;DHT22;1521;53.584;9.938;2023-04-01T08:23:52;6.90;55.10
3023;DHT22;1521;53.584;9.938;2023-04-01T08:26:37;6.90;47.60
3023;DHT22;1521;53.584;9.938;2023-04-01T08:29:22;6.90;30.40
3023;DHT22;1521;53.584;9.938;2023-04-01T08:34:34;7.00;39.70
3023;DHT22;1521;53.584;9.938;2023-04-01T08:37:20;6.90;1.00
3023;DHT22;1521;53.584;9.938;2023-04-01T08:39:50;6.90;1.00
3023;DHT22;1521;53.584;9.938;2023-04-01T08:50:18;7.10;44.20
3023;DHT22;1521;53.584;9.938;2023-04-01T08:55:27;7.20;23.80
3023;DHT22;1521;53.584;9.938;2023-04-01T08:58:11;7.10;2.10
3023;DHT22;1521;53.584;9.938;2023-04-01T09:00:52;7.10;1.00
3023;DHT22;1521;53.584;9.938;2023-04-01T09:17:09;7.10;1.00
3023;DHT22;1521;53.584;9.938;2023-04-01T09:25:24;7.20;1.00
3023;DHT22;1521;53.584;9.938;2023-04-01T09:28:03;7.30;1.00
3023;DHT22;1521;53.584;9.938;2023-04-01T09:45:01;7.40;1.00
3023;DHT22;1521;53.584;9.938;2023-04-01T09:48:36;7.50;1.00
3023;DHT22;1521;53.584;9.938;2023-04-01T09:53:57;7.60;1.00
3023;DHT22;1521;53.584;9.938;2023-04-01T10:18:51;7.60;1.00
3023;DHT22;1521;53.584;9.938;2023-04-01T10:27:43;7.60;99.90
3023;DHT22;1521;53.584;9.938;2023-04-01T10:31:05;7.80;99.90
3023;DHT22;1521;53.584;9.938;2023-04-01T10:44:42;8.10;99.90
3023;DHT22;1521;53.584;9.938;2023-04-01T10:47:28;8.00;99.90
3023;DHT22;1521;53.584;9.938;2023-04-01T10:53:15;7.70;99.90
3023;DHT22;1521;53.584;9.938;2023-04-01T11:04:45;7.90;99.90
3023;DHT22;1521;53.584;9.938;2023-04-01T11:24:13;7.80;99.90
3023;DHT22;1521;53.584;9.938;2023-04-01T11:40:20;7.40;99.90
3023;DHT22;1521;53.584;9.938;2023-04-01T11:48:44;7.30;99.90
3023;DHT22;1521;53.584;9.938;2023-04-01T12:03:09;7.10;99.90
3023;DHT22;1521;53.584;9.938;2023-04-01T12:08:38;7.00;99.90
3023;DHT22;1521;53.584;9.938;2023-04-01T12:16:47;6.90;99.90
3023;DHT22;1521;53.584;9.938;2023-04-01T12:19:34;6.90;99.90
3023;DHT22;1521;53.584;9.938;2023-04-01T12:33:04;6.80;99.90
3023;DHT22;1521;53.584;9.938;2023-04-01T12:49:02;6.80;99.90
3023;DHT22;1521;53.584;9.938;2023-04-01T12:57:27;6.70;42.00
3023;DHT22;1521;53.584;9.938;2023-04-01T13:11:36;6.60;1.00
3023;DHT22;1521;53.584;9.938;2023-04-01T13:14:36;6.60;18.00
3023;DHT22;1521;53.584;9.938;2023-04-01T13:20:02;6.60;1.00
3023;DHT22;1521;53.584;9.938;2023-04-01T13:28:11;6.60;1.00
3023;DHT22;1521;53.584;9.938;2023-04-01T13:31:01;6.60;1.00
3023;DHT22;1521;53.584;9.938;2023-04-01T13:44:16;6.60;99.90
3023;DHT22;1521;53.584;9.938;2023-04-01T13:47:11;6.60;1.00
3023;DHT22;1521;53.584;9.938;2023-04-01T13:52:27;6.60;99.90
3023;DHT22;1521;53.584;9.938;2023-04-01T14:05:59;6.50;78.30
3023;DHT22;1521;53.584;9.938;2023-04-01T14:08:47;6.50;99.90
3023;DHT22;1521;53.584;9.938;2023-04-01T14:11:39;6.40;99.90
3023;DHT22;1521;53.584;9.938;2023-04-01T14:17:12;6.40;1.00
3023;DHT22;1521;53.584;9.938;2023-04-01T14:22:42;6.30;99.90
3023;DHT22;1521;53.584;9.938;2023-04-01T14:28:12;6.40;1.00
3023;DHT22;1521;53.584;9.938;2023-04-01T14:31:11;6.30;1.00
3023;DHT22;1521;53.584;9.938;2023-04-01T14:36:43;6.30;28.70
3023;DHT22;1521;53.584;9.938;2023-04-01T14:47:58;6.20;1.00
3023;DHT22;1521;53.584;9.938;2023-04-01T14:50:27;6.20;99.90
3023;DHT22;1521;53.584;9.938;2023-04-01T14:53:13;6.10;99.90
3023;DHT22;1521;53.584;9.938;2023-04-01T14:55:55;6.20;1.00
3023;DHT22;1521;53.584;9.938;2023-04-01T14:58:22;6.20;1.00
3023;DHT22;1521;53.584;9.938;2023-04-01T15:00:59;6.30;1.00
3023;DHT22;1521;53.584;9.938;2023-04-01T15:10:35;6.10;1.00
3023;DHT22;1521;53.584;9.938;2023-04-01T15:15:19;6.10;1.00
3023;DHT22;1521;53.584;9.938;2023-04-01T15:17:55;6.10;41.60
3023;DHT22;1521;53.584;9.938;2023-04-01T15:26:09;6.00;96.70
3023;DHT22;1521;53.584;9.938;2023-04-01T15:28:49;5.90;49.30
3023;DHT22;1521;53.584;9.938;2023-04-01T15:34:26;5.80;79.30
3023;DHT22;1521;53.584;9.938;2023-04-01T15:42:18;5.80;99.90
3023;DHT22;1521;53.584;9.938;2023-04-01T15:55:46;5.60;99.90
3023;DHT22;1521;53.584;9.938;2023-04-01T15:58:29;5.60;99.90
3023;DHT22;1521;53.584;9.938;2023-04-01T16:01:15;5.60;99.90
3023;DHT22;1521;53.584;9.938;2023-04-01T16:04:07;5.50;99.90
3023;DHT22;1521;53.584;9.938;2023-04-01T16:17:10;5.40;99.90
3023;DHT22;1521;53.584;9.938;2023-04-01T16:19:44;5.40;99.90
3023;DHT22;1521;53.584;9.938;2023-04-01T16:22:17;5.30;99.90
3023;DHT22;1521;53.584;9.938;2023-04-01T16:27:40;5.30;99.90
3023;DHT22;1521;53.584;9.938;2023-04-01T16:30:44;5.40;99.90
3023;DHT22;1521;53.584;9.938;2023-04-01T16:38:49;5.30;99.90
3023;DHT22;1521;53.584;9.938;2023-04-01T16:46:43;5.30;99.90
3023;DHT22;1521;53.584;9.938;2023-04-01T16:54:59;5.20;99.90
3023;DHT22;1521;53.584;9.938;2023-04-01T17:00:27;5.20;99.90
3023;DHT22;1521;53.584;9.938;2023-04-01T17:06:07;5.00;99.90
3023;DHT22;1521;53.584;9.938;2023-04-01T17:14:50;4.90;99.90
3023;DHT22;1521;53.584;9.938;2023-04-01T17:20:01;4.80;1.00
3023;DHT22;1521;53.584;9.938;2023-04-01T17:33:10;4.80;1.00
3023;DHT22;1521;53.584;9.938;2023-04-01T17:44:05;4.80;99.90
3023;DHT22;1521;53.584;9.938;2023-04-01T17:57:52;4.80;66.00
3023;DHT22;1521;53.584;9.938;2023-04-01T18:00:26;4.70;54.10
3023;DHT22;1521;53.584;9.938;2023-04-01T18:09:05;4.70;99.90
3023;DHT22;1521;53.584;9.938;2023-04-01T18:11:58;4.70;1.00
3023;DHT22;1521;53.584;9.938;2023-04-01T18:17:32;4.70;1.00
3023;DHT22;1521;53.584;9.938;2023-04-01T18:20:22;4.70;73.60
3023;DHT22;1521;53.584;9.938;2023-04-01T18:25:41;4.60;99.90
3023;DHT22;1521;53.584;9.938;2023-04-01T18:36:24;4.60;99.90
3023;DHT22;1521;53.584;9.938;2023-04-01T18:39:00;4.60;1.00
3023;DHT22;1521;53.584;9.938;2023-04-01T18:44:16;4.50;99.90
3023;DHT22;1521;53.584;9.938;2023-04-01T18:46:55;4.50;1.00
3023;DHT22;1521;53.584;9.938;2023-04-01T18:49:41;4.50;99.90
3023;DHT22;1521;53.584;9.938;2023-04-01T18:52:24;4.50;1.00
3023;DHT22;1521;53.584;9.938;2023-04-01T18:55:18;4.40;99.90
3023;DHT22;1521;53.584;9.938;2023-04-01T18:57:52;4.20;1.00
3023;DHT22;1521;53.584;9.938;2023-04-01T19:00:26;4.20;99.90
3023;DHT22;1521;53.584;9.938;2023-04-01T19:03:15;4.10;1.00
3023;DHT22;1521;53.584;9.938;2023-04-01T19:05:45;4.10;99.90
3023;DHT22;1521;53.584;9.938;2023-04-01T19:10:58;4.20;1.00
3023;DHT22;1521;53.584;9.938;2023-04-01T19:19:13;4.10;1.00
3023;DHT22;1521;53.584;9.938;2023-04-01T19:27:46;4.10;99.90
3023;DHT22;1521;53.584;9.938;2023-04-01T19:43:45;4.10;99.90
3023;DHT22;1521;53.584;9.938;2023-04-01T19:46:33;4.00;97.90
3023;DHT22;1521;53.584;9.938;2023-04-01T19:51:39;3.90;1.00
3023;DHT22;1521;53.584;9.938;2023-04-01T19:54:32;3.90;1.00
3023;DHT22;1521;53.584;9.938;2023-04-01T20:10:56;3.60;99.90
3023;DHT22;1521;53.584;9.938;2023-04-01T20:13:58;3.50;1.00
3023;DHT22;1521;53.584;9.938;2023-04-01T20:19:28;3.40;86.60
3023;DHT22;1521;53.584;9.938;2023-04-01T20:21:58;3.30;68.20
3023;DHT22;1521;53.584;9.938;2023-04-01T20:24:36;3.30;58.50
3023;DHT22;1521;53.584;9.938;2023-04-01T20:27:21;3.30;51.80
3023;DHT22;1521;53.584;9.938;2023-04-01T20:37:48;3.20;35.40
3023;DHT22;1521;53.584;9.938;2023-04-01T20:40:38;3.20;44.40
3023;DHT22;1521;53.584;9.938;2023-04-01T20:45:59;3.10;32.60
3023;DHT22;1521;53.584;9.938;2023-04-01T20:51:03;3.20;15.20
3023;DHT22;1521;53.584;9.938;2023-04-01T20:56:16;3.10;1.00
3023;DHT22;1521;53.584;9.938;2023-04-01T21:09:24;2.90;1.00
3023;DHT22;1521;53.584;9.938;2023-04-01T21:28:59;2.60;1.00
3023;DHT22;1521;53.584;9.938;2023-04-01T21:34:25;2.50;1.00
3023;DHT22;1521;53.584;9.938;2023-04-01T21:37:07;2.40;1.00
3023;DHT22;1521;53.584;9.938;2023-04-01T21:47:57;2.30;15.20
3023;DHT22;1521;53.584;9.938;2023-04-01T21:59:13;2.10;99.90
3023;DHT22;1521;53.584;9.938;2023-04-01T22:04:44;2.10;99.90
3023;DHT22;1521;53.584;9.938;2023-04-01T22:07:20;2.10;99.90
3023;DHT22;1521;53.584;9.938;2023-04-01T22:12:31;2.10;99.90
3023;DHT22;1521;53.584;9.938;2023-04-01T22:15:11;2.10;95.00
3023;DHT22;1521;53.584;9.938;2023-04-01T22:23:08;1.90;70.60
3023;DHT22;1521;53.584;9.938;2023-04-01T22:25:45;1.90;75.00
3023;DHT22;1521;53.584;9.938;2023-04-01T22:28:24;2.00;63.60
3023;DHT22;1521;53.584;9.938;2023-04-01T22:30:58;2.00;55.00
3023;DHT22;1521;53.584;9.938;2023-04-01T22:36:21;2.00;51.10
3023;DHT22;1521;53.584;9.938;2023-04-01T22:52:43;1.90;28.40
3023;DHT22;1521;53.584;9.938;2023-04-01T22:55:27;1.80;28.40
3023;DHT22;1521;53.584;9.938;2023-04-01T22:57:59;1.80;36.60
3023;DHT22;1521;53.584;9.938;2023-04-01T23:00:30;1.70;42.50
3023;DHT22;1521;53.584;9.938;2023-04-01T23:03:18;1.70;47.80
3023;DHT22;1521;53.584;9.938;2023-04-01T23:05:51;1.80;51.30
3023;DHT22;1521;53.584;9.938;2023-04-01T23:11:07;1.80;45.10
3023;DHT22;1521;53.584;9.938;2023-04-01T23:13:38;1.80;42.50
3023;DHT22;1521;53.584;9.938;2023-04-01T23:16:06;1.80;58.00
3023;DHT22;1521;53.584;9.938;2023-04-01T23:19:00;1.70;38.30
3023;DHT22;1521;53.584;9.938;2023-04-01T23:21:41;1.80;35.90
3023;DHT22;1521;53.584;9.938;2023-04-01T23:26:55;1.70;30.20
3023;DHT22;1521;53.584;9.938;2023-04-01T23:29:22;1.70;30.00
3023;DHT22;1521;53.584;9.938;2023-04-01T23:31:56;1.70;26.00
3023;DHT22;1521;53.584;9.938;2023-04-01T23:34:34;1.70;26.50
3023;DHT22;1521;53.584;9.938;2023-04-01T23:37:07;1.70;23.00
3023;DHT22;1521;53.584;9.938;2023-04-01T23:39:36;1.70;15.90
3023;DHT22;1521;53.584;9.938;2023-04-01T23:42:27;1.70;11.20
3023;DHT22;1521;53.584;9.938;2023-04-01T23:45:05;1.70;11.50
3023;DHT22;1521;53.584;9.938;2023-04-01T23:47:39;1.60;8.10
3023;DHT22;1521;53.584;9.938;2023-04-01T23:50:18;1.70;4.70
3023;DHT22;1521;53.584;9.938;2023-04-01T23:53:04;1.80;1.00
3023;DHT22;1521;53.584;9.938;2023-04-01T23:55:34;1.80;1.00
